Time;durP1;ratioP1;P1;durP2;ratioP2;P2;SDS_P1;SDS_P2;PMS_P1;PMS_P2;Temp;Humidity;BMP_temperature;BMP_pressure;BME280_temperature;BME280_humidity;BME280_pressure;Samples;Min_cycle;Max_cycle;Signal;HPM_P1;HPM_P2
2023/10/31 00:00:27;;;;;;;5.90;5.33;;;;;;;;;;4996564;28;20622;-86
2023/10/31 00:02:53;;;;;;;5.93;4.90;;;;;;;;;;4984299;28;20247;-85
2023/10/31 00:05:19;;;;;;;5.93;5.40;;;;;;;;;;5000256;28;20323;-87
2023/10/31 00:07:44;;;;;;;8.87;5.13;;;;;;;;;;4996270;28;20221;-84
2023/10/31 00:10:10;;;;;;;5.40;4.90;;;;;;;;;;5000643;28;20226;-84
2023/10/31 00:12:35;;;;;;;7.13;5.70;;;;;;;;;;4994521;28;20224;-84
2023/10/31 00:15:03;;;;;;;6.87;5.40;;;;;;;;;;4994544;28;20216;-86
2023/10/31 00:17:29;;;;;;;6.43;5.50;;;;;;;;;;4979486;28;20694;-85
2023/10/31 00:19:57;;;;;;;9.47;6.30;;;;;;;;;;5000468;28;20219;-86
2023/10/31 00:22:22;;;;;;;10.40;6.00;;;;;;;;;;5007513;28;20224;-86
2023/10/31 00:24:50;;;;;;;6.37;5.43;;;;;;;;;;4992376;28;20225;-86
2023/10/31 00:27:18;;;;;;;7.73;5.77;;;;;;;;;;4992228;28;20266;-86
2023/10/31 00:29:43;;;;;;;6.03;5.43;;;;;;;;;;5014808;28;20220;-85
2023/10/31 00:32:09;;;;;;;6.13;5.63;;;;;;;;;;5012220;28;20216;-87
2023/10/31 00:34:34;;;;;;;5.93;5.43;;;;;;;;;;5007540;28;20221;-86
2023/10/31 00:37:02;;;;;;;6.03;5.43;;;;;;;;;;5013065;28;20240;-86
2023/10/31 00:39:28;;;;;;;6.90;6.20;;;;;;;;;;5002349;28;20251;-87
2023/10/31 00:41:56;;;;;;;10.87;6.23;;;;;;;;;;4998664;28;20225;-86
2023/10/31 00:44:21;;;;;;;7.07;6.00;;;;;;;;;;5001560;28;20673;-85
2023/10/31 00:46:49;;;;;;;7.27;6.23;;;;;;;;;;4986149;28;20708;-87
2023/10/31 00:49:15;;;;;;;7.03;6.20;;;;;;;;;;4991686;28;20220;-85
2023/10/31 00:51:42;;;;;;;6.53;5.93;;;;;;;;;;4993396;28;20228;-83
2023/10/31 00:54:13;;;;;;;7.37;6.77;;;;;;;;;;4977354;28;20709;-82
2023/10/31 00:56:41;;;;;;;11.10;7.20;;;;;;;;;;4975760;28;20236;-86
2023/10/31 00:59:07;;;;;;;7.53;6.83;;;;;;;;;;4998524;28;20246;-86
2023/10/31 01:01:35;;;;;;;8.27;7.47;;;;;;;;;;5027535;28;20239;-85
2023/10/31 01:04:00;;;;;;;8.17;7.37;;;;;;;;;;4998601;28;20964;-85
2023/10/31 01:06:28;;;;;;;7.83;7.13;;;;;;;;;;5000656;28;20227;-85
2023/10/31 01:08:56;;;;;;;8.60;7.80;;;;;;;;;;4997652;28;20219;-84
2023/10/31 01:11:21;;;;;;;7.60;6.73;;;;;;;;;;5028847;28;20253;-85
2023/10/31 01:13:52;;;;;;;9.00;7.27;;;;;;;;;;4998622;28;20284;-83
2023/10/31 01:16:17;;;;;;;7.60;6.83;;;;;;;;;;4999913;28;20227;-83
2023/10/31 01:18:46;;;;;;;8.20;7.50;;;;;;;;;;4987335;28;20262;-86
2023/10/31 01:21:14;;;;;;;8.10;7.40;;;;;;;;;;5001023;28;20212;-86
2023/10/31 01:23:40;;;;;;;8.93;7.30;;;;;;;;;;4998519;28;20583;-86
2023/10/31 01:26:07;;;;;;;7.90;7.20;;;;;;;;;;4993972;28;20224;-84
2023/10/31 01:28:33;;;;;;;7.77;7.07;;;;;;;;;;4999076;28;20670;-88
2023/10/31 01:31:03;;;;;;;7.97;7.27;;;;;;;;;;4996707;28;20220;-87
2023/10/31 01:33:29;;;;;;;8.53;7.73;;;;;;;;;;5015796;28;20262;-86
2023/10/31 01:35:56;;;;;;;7.97;7.23;;;;;;;;;;4995439;28;20220;-86
2023/10/31 01:38:22;;;;;;;7.83;7.03;;;;;;;;;;5002608;28;20216;-86
2023/10/31 01:40:50;;;;;;;8.10;6.90;;;;;;;;;;5015526;28;20220;-87
2023/10/31 01:43:31;;;;;;;9.53;7.53;;;;;;;;;;4998513;28;20227;-86
2023/10/31 01:45:59;;;;;;;8.03;7.30;;;;;;;;;;5023239;28;20231;-87
2023/10/31 01:48:29;;;;;;;8.50;7.63;;;;;;;;;;4981543;28;20219;-86
2023/10/31 01:50:54;;;;;;;8.27;7.47;;;;;;;;;;4995220;28;20231;-86
2023/10/31 01:53:20;;;;;;;10.63;8.50;;;;;;;;;;5011838;28;20212;-86
2023/10/31 01:55:48;;;;;;;9.80;7.87;;;;;;;;;;5004063;28;20227;-87
2023/10/31 01:58:16;;;;;;;8.30;7.50;;;;;;;;;;4998719;28;20228;-87
2023/10/31 02:00:44;;;;;;;8.73;7.90;;;;;;;;;;5014337;28;20224;-87
2023/10/31 02:03:09;;;;;;;9.57;8.67;;;;;;;;;;4994994;28;20708;-86
2023/10/31 02:05:37;;;;;;;10.13;9.20;;;;;;;;;;4996349;28;20243;-84
2023/10/31 02:08:08;;;;;;;10.83;9.03;;;;;;;;;;4997150;28;21020;-86
2023/10/31 02:10:34;;;;;;;9.93;8.30;;;;;;;;;;5004887;28;20215;-83
2023/10/31 02:13:10;;;;;;;9.93;8.93;;;;;;;;;;5002765;28;20223;-85
2023/10/31 02:15:38;;;;;;;9.20;8.30;;;;;;;;;;5002923;28;20231;-84
2023/10/31 02:18:05;;;;;;;10.10;8.80;;;;;;;;;;5006087;28;20243;-85
2023/10/31 02:20:30;;;;;;;9.23;8.33;;;;;;;;;;5007432;28;20240;-85
2023/10/31 02:22:56;;;;;;;10.27;9.20;;;;;;;;;;5006218;28;20238;-85
2023/10/31 02:25:21;;;;;;;10.10;9.07;;;;;;;;;;4987100;28;20225;-86
2023/10/31 02:27:49;;;;;;;8.80;7.93;;;;;;;;;;5004376;28;20259;-88
2023/10/31 02:30:15;;;;;;;9.73;8.83;;;;;;;;;;5001410;28;20226;-86
2023/10/31 02:32:41;;;;;;;9.60;8.60;;;;;;;;;;5013556;28;20216;-86
2023/10/31 02:35:09;;;;;;;9.63;8.73;;;;;;;;;;5015927;28;20729;-86
2023/10/31 02:37:35;;;;;;;9.43;7.97;;;;;;;;;;4994095;28;20281;-85
2023/10/31 02:40:00;;;;;;;9.97;9.07;;;;;;;;;;5001008;28;20258;-87
2023/10/31 02:42:26;;;;;;;9.33;8.23;;;;;;;;;;5002667;28;20704;-86
2023/10/31 02:44:52;;;;;;;11.97;8.90;;;;;;;;;;4996171;28;20693;-85
2023/10/31 02:47:22;;;;;;;9.53;8.73;;;;;;;;;;5010537;28;20727;-85
2023/10/31 02:49:50;;;;;;;10.13;9.23;;;;;;;;;;5004376;28;20242;-83
2023/10/31 02:52:15;;;;;;;14.33;9.47;;;;;;;;;;5035733;28;20211;-85
2023/10/31 02:54:41;;;;;;;11.33;10.20;;;;;;;;;;5022979;28;20279;-83
2023/10/31 02:57:09;;;;;;;11.30;9.80;;;;;;;;;;5040028;28;20231;-83
2023/10/31 02:59:34;;;;;;;12.00;10.77;;;;;;;;;;5014503;28;20571;-84
2023/10/31 03:02:05;;;;;;;11.80;10.60;;;;;;;;;;5004929;28;20212;-83
2023/10/31 03:04:30;;;;;;;11.43;10.33;;;;;;;;;;5003077;28;20204;-82
2023/10/31 03:06:56;;;;;;;11.37;10.27;;;;;;;;;;5034046;28;20254;-84
2023/10/31 03:09:25;;;;;;;12.20;11.00;;;;;;;;;;5015770;28;20601;-86
2023/10/31 03:11:51;;;;;;;11.87;10.67;;;;;;;;;;5016538;28;20221;-87
2023/10/31 03:14:18;;;;;;;11.90;10.80;;;;;;;;;;5014057;28;20500;-86
2023/10/31 03:16:46;;;;;;;13.63;10.97;;;;;;;;;;5000673;28;20240;-87
2023/10/31 03:19:12;;;;;;;11.63;10.50;;;;;;;;;;4984590;28;20231;-87
2023/10/31 03:21:40;;;;;;;11.97;10.87;;;;;;;;;;4985419;28;20266;-86
2023/10/31 03:24:07;;;;;;;11.30;10.30;;;;;;;;;;5005759;28;20223;-87
2023/10/31 03:26:35;;;;;;;11.40;10.17;;;;;;;;;;4983806;28;20709;-84
2023/10/31 03:29:01;;;;;;;12.37;11.07;;;;;;;;;;4996966;28;20208;-86
2023/10/31 03:31:29;;;;;;;11.43;10.43;;;;;;;;;;4998804;28;20647;-85
2023/10/31 03:33:56;;;;;;;12.80;10.93;;;;;;;;;;5016083;28;20225;-87
2023/10/31 03:36:24;;;;;;;11.30;10.33;;;;;;;;;;5002754;28;20277;-86
2023/10/31 03:38:49;;;;;;;14.07;12.07;;;;;;;;;;5001504;28;20224;-85
2023/10/31 03:41:17;;;;;;;12.27;11.27;;;;;;;;;;4985682;28;20227;-84
2023/10/31 03:43:43;;;;;;;11.67;10.67;;;;;;;;;;4997318;28;20232;-85
2023/10/31 03:46:08;;;;;;;12.70;11.50;;;;;;;;;;5011482;28;20220;-84
2023/10/31 03:48:36;;;;;;;12.47;11.27;;;;;;;;;;5029660;28;20578;-83
2023/10/31 03:51:04;;;;;;;12.83;11.57;;;;;;;;;;5008531;28;20301;-87
2023/10/31 03:53:29;;;;;;;12.47;11.37;;;;;;;;;;4998559;28;21242;-84
2023/10/31 03:55:59;;;;;;;12.53;11.30;;;;;;;;;;4996188;28;20228;-83
2023/10/31 03:58:25;;;;;;;12.60;11.40;;;;;;;;;;4997536;28;20258;-84
2023/10/31 04:04:40;;;;;;;13.40;12.00;;;;;;;;;;5028784;28;20274;-84
2023/10/31 04:07:11;;;;;;;13.17;11.87;;;;;;;;;;5007966;28;20259;-85
2023/10/31 04:09:37;;;;;;;12.77;11.67;;;;;;;;;;4998931;28;20298;-86
2023/10/31 04:12:05;;;;;;;12.23;11.03;;;;;;;;;;4982235;28;20221;-84
2023/10/31 04:14:30;;;;;;;11.83;10.93;;;;;;;;;;5008413;28;20294;-87
2023/10/31 04:16:56;;;;;;;12.67;10.17;;;;;;;;;;5016903;28;20289;-85
2023/10/31 04:19:21;;;;;;;10.77;9.77;;;;;;;;;;5008556;28;20224;-86
2023/10/31 04:21:47;;;;;;;10.47;9.57;;;;;;;;;;4998325;28;20212;-87
2023/10/31 04:24:17;;;;;;;11.37;10.27;;;;;;;;;;4983353;28;20693;-86
2023/10/31 04:26:45;;;;;;;13.13;12.03;;;;;;;;;;4999449;28;20232;-87
2023/10/31 04:29:13;;;;;;;13.03;11.70;;;;;;;;;;5005845;28;20216;-86
2023/10/31 04:31:39;;;;;;;12.77;11.67;;;;;;;;;;4999095;28;20227;-87
2023/10/31 04:34:04;;;;;;;11.93;10.83;;;;;;;;;;4997360;28;20221;-86
2023/10/31 04:36:30;;;;;;;11.53;10.43;;;;;;;;;;4981536;28;20603;-86
2023/10/31 04:38:57;;;;;;;11.93;11.03;;;;;;;;;;4994855;28;20587;-86
2023/10/31 04:41:23;;;;;;;10.83;10.03;;;;;;;;;;4999148;28;20227;-87
2023/10/31 04:43:48;;;;;;;11.30;10.40;;;;;;;;;;4988961;28;20747;-88
2023/10/31 04:46:16;;;;;;;12.40;10.53;;;;;;;;;;4987290;28;20298;-86
2023/10/31 04:48:42;;;;;;;12.20;10.97;;;;;;;;;;4997453;28;20235;-85
2023/10/31 04:51:15;;;;;;;12.10;10.87;;;;;;;;;;5009288;28;20227;-85
2023/10/31 04:53:40;;;;;;;11.40;10.30;;;;;;;;;;4989405;28;20215;-86
2023/10/31 04:56:12;;;;;;;12.40;11.30;;;;;;;;;;4992090;28;20644;-88
2023/10/31 04:58:38;;;;;;;12.70;11.60;;;;;;;;;;4991329;28;20228;-87
2023/10/31 05:01:08;;;;;;;11.37;10.37;;;;;;;;;;4994893;28;20235;-87
2023/10/31 05:03:33;;;;;;;9.97;9.00;;;;;;;;;;4994814;28;20225;-86
2023/10/31 05:05:59;;;;;;;8.87;8.07;;;;;;;;;;4983211;28;20231;-86
2023/10/31 05:08:30;;;;;;;8.20;7.60;;;;;;;;;;4997276;28;20224;-87
2023/10/31 05:10:55;;;;;;;7.27;6.57;;;;;;;;;;5004435;28;20327;-84
2023/10/31 05:13:21;;;;;;;10.77;9.87;;;;;;;;;;5014393;28;20997;-85
2023/10/31 05:15:46;;;;;;;9.63;8.90;;;;;;;;;;5000508;28;20224;-85
2023/10/31 05:18:12;;;;;;;12.00;11.00;;;;;;;;;;5024567;28;20238;-87
2023/10/31 05:20:37;;;;;;;12.40;11.40;;;;;;;;;;4991333;28;20239;-85
2023/10/31 05:23:08;;;;;;;11.17;10.27;;;;;;;;;;5015493;28;20270;-84
2023/10/31 05:25:34;;;;;;;13.93;12.83;;;;;;;;;;5006554;28;20938;-83
2023/10/31 05:28:00;;;;;;;13.40;11.87;;;;;;;;;;4998261;28;20225;-87
2023/10/31 05:30:25;;;;;;;12.53;11.63;;;;;;;;;;4997692;28;20291;-85
2023/10/31 05:32:55;;;;;;;11.73;10.73;;;;;;;;;;4980414;28;20223;-84
2023/10/31 05:35:21;;;;;;;11.53;10.40;;;;;;;;;;4980659;28;20293;-83
2023/10/31 05:37:49;;;;;;;11.30;10.13;;;;;;;;;;4997868;28;20734;-87
2023/10/31 05:40:17;;;;;;;9.97;9.17;;;;;;;;;;4999140;28;20358;-85
2023/10/31 05:42:46;;;;;;;9.70;8.80;;;;;;;;;;5009159;28;20224;-86
2023/10/31 05:45:11;;;;;;;8.93;8.13;;;;;;;;;;5007214;28;20226;-84
2023/10/31 05:47:37;;;;;;;6.27;5.83;;;;;;;;;;5002405;28;20232;-85
2023/10/31 05:50:05;;;;;;;5.07;4.67;;;;;;;;;;4998369;28;20757;-86
2023/10/31 05:52:32;;;;;;;3.43;3.23;;;;;;;;;;5019923;28;20274;-85
2023/10/31 05:55:00;;;;;;;5.23;3.50;;;;;;;;;;5017409;28;20248;-85
2023/10/31 05:57:25;;;;;;;3.37;3.17;;;;;;;;;;5009910;28;20244;-85
2023/10/31 05:59:51;;;;;;;2.80;2.63;;;;;;;;;;5020464;28;20247;-85
2023/10/31 06:02:17;;;;;;;2.83;2.63;;;;;;;;;;5005842;28;20228;-86
2023/10/31 06:04:45;;;;;;;3.00;2.80;;;;;;;;;;5034071;28;20235;-84
2023/10/31 06:07:13;;;;;;;2.90;2.70;;;;;;;;;;5002621;28;20208;-83
2023/10/31 06:09:38;;;;;;;3.27;3.07;;;;;;;;;;4987438;28;20232;-85
2023/10/31 06:12:07;;;;;;;4.00;3.70;;;;;;;;;;5017752;28;20224;-85
2023/10/31 06:14:33;;;;;;;3.97;3.67;;;;;;;;;;5003507;28;20216;-84
2023/10/31 06:16:59;;;;;;;4.20;3.90;;;;;;;;;;4999064;28;20624;-84
2023/10/31 06:19:24;;;;;;;4.27;3.97;;;;;;;;;;5000876;28;20310;-86
2023/10/31 06:21:54;;;;;;;4.70;4.30;;;;;;;;;;5013976;28;20228;-84
2023/10/31 06:24:23;;;;;;;4.73;4.43;;;;;;;;;;5003529;28;20227;-85
2023/10/31 06:26:51;;;;;;;3.80;3.50;;;;;;;;;;5003602;28;20220;-82
2023/10/31 06:29:16;;;;;;;4.07;3.77;;;;;;;;;;5002295;28;20220;-84
2023/10/31 06:31:47;;;;;;;3.80;3.33;;;;;;;;;;5018476;28;20263;-85
2023/10/31 06:34:13;;;;;;;3.53;3.33;;;;;;;;;;4989409;28;20232;-83
2023/10/31 06:36:38;;;;;;;3.40;3.20;;;;;;;;;;4999616;28;20220;-85
2023/10/31 06:39:04;;;;;;;3.50;3.20;;;;;;;;;;4985350;28;20230;-82
2023/10/31 06:41:31;;;;;;;2.60;2.40;;;;;;;;;;5037494;28;20215;-84
2023/10/31 06:43:57;;;;;;;3.87;2.10;;;;;;;;;;5004397;28;20228;-85
2023/10/31 06:46:22;;;;;;;1.90;1.80;;;;;;;;;;5003301;28;20220;-86
2023/10/31 06:48:48;;;;;;;1.57;1.47;;;;;;;;;;5020778;28;20574;-83
2023/10/31 06:51:16;;;;;;;0.83;0.83;;;;;;;;;;4999566;28;20220;-84
2023/10/31 06:53:44;;;;;;;0.87;0.87;;;;;;;;;;5017123;28;20689;-82
2023/10/31 06:56:12;;;;;;;0.90;0.73;;;;;;;;;;5000809;28;20878;-83
2023/10/31 06:58:37;;;;;;;1.10;1.10;;;;;;;;;;5005081;28;20303;-86
2023/10/31 07:01:09;;;;;;;0.60;0.60;;;;;;;;;;5004170;28;20254;-86
2023/10/31 07:03:34;;;;;;;0.57;0.50;;;;;;;;;;4997471;28;20647;-84
2023/10/31 07:06:00;;;;;;;0.50;0.50;;;;;;;;;;4989514;28;20217;-86
2023/10/31 07:08:26;;;;;;;0.33;0.30;;;;;;;;;;4999519;28;20232;-86
2023/10/31 07:10:51;;;;;;;0.77;0.77;;;;;;;;;;4993557;28;20232;-82
2023/10/31 07:13:17;;;;;;;0.70;0.70;;;;;;;;;;4995935;28;20213;-86
2023/10/31 07:15:46;;;;;;;0.40;0.40;;;;;;;;;;5017492;28;20212;-86
2023/10/31 09:33:16;;;;;;;1.13;0.90;;;;;;;;;;4995429;27;1956104;-73
2023/10/31 09:35:41;;;;;;;1.97;1.80;;;;;;;;;;5035423;28;20218;-76
2023/10/31 09:38:09;;;;;;;1.20;1.10;;;;;;;;;;5027935;28;20837;-74
2023/10/31 09:40:37;;;;;;;2.00;1.90;;;;;;;;;;5036928;28;20219;-75
2023/10/31 09:43:07;;;;;;;4.00;3.60;;;;;;;;;;5016274;28;20223;-73
2023/10/31 09:45:32;;;;;;;2.90;2.07;;;;;;;;;;5040155;28;20648;-73
2023/10/31 09:48:00;;;;;;;2.13;1.83;;;;;;;;;;5021990;28;20227;-73
2023/10/31 09:50:29;;;;;;;2.73;2.30;;;;;;;;;;5036296;28;20222;-73
2023/10/31 09:52:57;;;;;;;8.30;3.40;;;;;;;;;;5014313;28;20237;-74
2023/10/31 09:55:27;;;;;;;5.77;5.27;;;;;;;;;;5013628;28;20239;-73
2023/10/31 09:57:53;;;;;;;7.13;5.23;;;;;;;;;;5029152;28;20222;-74
2023/10/31 10:00:19;;;;;;;1.43;1.40;;;;;;;;;;5049401;28;20225;-74
2023/10/31 10:02:46;;;;;;;0.70;0.70;;;;;;;;;;5033536;28;20235;-74
2023/10/31 10:05:14;;;;;;;1.30;1.20;;;;;;;;;;5037568;28;20269;-74
2023/10/31 10:07:41;;;;;;;1.67;1.27;;;;;;;;;;5022714;28;20254;-74
2023/10/31 10:10:12;;;;;;;1.00;1.00;;;;;;;;;;5035619;28;20210;-74
2023/10/31 10:12:40;;;;;;;1.17;1.17;;;;;;;;;;5052633;28;20672;-75
2023/10/31 10:15:06;;;;;;;2.50;0.70;;;;;;;;;;5034842;28;20215;-74
2023/10/31 10:17:36;;;;;;;1.10;1.10;;;;;;;;;;5034567;28;20238;-74
2023/10/31 10:20:08;;;;;;;0.93;0.93;;;;;;;;;;5035821;28;20231;-72
2023/10/31 10:22:42;;;;;;;3.33;1.10;;;;;;;;;;5050110;28;20227;-73
2023/10/31 10:25:18;;;;;;;2.10;1.13;;;;;;;;;;5036242;28;20218;-73
2023/10/31 10:27:47;;;;;;;0.70;0.70;;;;;;;;;;5036352;28;20704;-73
2023/10/31 10:30:13;;;;;;;0.97;0.97;;;;;;;;;;5036678;28;21153;-72
2023/10/31 10:32:38;;;;;;;2.53;0.63;;;;;;;;;;5050928;28;20249;-74
2023/10/31 10:35:05;;;;;;;0.70;0.50;;;;;;;;;;5052234;28;20262;-73
2023/10/31 10:37:33;;;;;;;1.13;0.70;;;;;;;;;;5034594;28;20245;-73
2023/10/31 10:39:59;;;;;;;0.40;0.40;;;;;;;;;;5017918;28;20807;-73
2023/10/31 10:42:46;;;;;;;0.37;0.37;;;;;;;;;;5035957;28;20223;-73
2023/10/31 10:45:17;;;;;;;0.30;0.30;;;;;;;;;;5034835;28;20278;-73
2023/10/31 10:47:49;;;;;;;0.30;0.30;;;;;;;;;;5013646;28;20364;-74
2023/10/31 10:50:15;;;;;;;0.67;0.40;;;;;;;;;;5037129;28;20307;-74
2023/10/31 10:52:48;;;;;;;0.20;0.20;;;;;;;;;;5004974;28;20228;-73
2023/10/31 10:55:24;;;;;;;0.33;0.33;;;;;;;;;;5019230;28;20600;-73
2023/10/31 10:57:56;;;;;;;0.17;0.17;;;;;;;;;;5021344;28;21218;-73
2023/10/31 11:00:24;;;;;;;0.83;0.33;;;;;;;;;;5037165;28;20771;-72
2023/10/31 11:02:54;;;;;;;0.40;0.30;;;;;;;;;;5004184;28;20432;-72
2023/10/31 11:05:22;;;;;;;0.30;0.30;;;;;;;;;;5036874;28;20208;-73
2023/10/31 11:07:47;;;;;;;0.60;0.60;;;;;;;;;;5020133;28;20264;-73
2023/10/31 11:10:13;;;;;;;0.57;0.50;;;;;;;;;;5004184;28;20310;-74
2023/10/31 11:12:39;;;;;;;0.43;0.43;;;;;;;;;;5036312;28;20236;-73
2023/10/31 11:15:05;;;;;;;0.53;0.53;;;;;;;;;;5020635;28;20228;-73
2023/10/31 11:17:35;;;;;;;0.60;0.60;;;;;;;;;;5019787;28;20750;-73
2023/10/31 11:20:04;;;;;;;0.80;0.70;;;;;;;;;;5023829;28;20230;-73
2023/10/31 11:22:45;;;;;;;0.67;0.60;;;;;;;;;;5020558;28;20306;-72
2023/10/31 11:25:20;;;;;;;1.00;1.00;;;;;;;;;;5053929;28;20334;-72
2023/10/31 11:36:01;;;;;;;3.50;3.20;;;;;;;;;;5037849;28;20234;-74
2023/10/31 11:38:37;;;;;;;2.27;2.07;;;;;;;;;;5037501;28;20234;-73
2023/10/31 11:41:03;;;;;;;2.73;1.10;;;;;;;;;;5024601;28;21115;-74
2023/10/31 11:43:38;;;;;;;2.03;1.93;;;;;;;;;;5018276;28;20239;-73
2023/10/31 11:46:07;;;;;;;1.50;1.40;;;;;;;;;;5038019;28;20322;-74
2023/10/31 11:48:51;;;;;;;1.60;1.50;;;;;;;;;;5019496;28;20592;-72
2023/10/31 11:51:17;;;;;;;2.00;1.80;;;;;;;;;;5020719;28;20254;-73
2023/10/31 11:53:48;;;;;;;2.50;2.30;;;;;;;;;;5053936;28;20228;-74
2023/10/31 11:56:19;;;;;;;5.40;2.60;;;;;;;;;;5006908;28;20253;-74
2023/10/31 11:58:44;;;;;;;3.10;2.80;;;;;;;;;;5038159;28;20251;-72
2023/10/31 12:01:12;;;;;;;7.77;5.73;;;;;;;;;;5022975;28;20708;-72
2023/10/31 12:03:39;;;;;;;8.13;4.33;;;;;;;;;;5034720;28;20223;-73
2023/10/31 12:06:05;;;;;;;5.20;3.60;;;;;;;;;;5036445;28;20301;-75
2023/10/31 12:08:35;;;;;;;5.27;4.13;;;;;;;;;;5036740;28;20277;-74
2023/10/31 12:11:10;;;;;;;6.27;4.53;;;;;;;;;;5037540;28;20219;-74
2023/10/31 12:13:40;;;;;;;3.43;3.17;;;;;;;;;;5036890;28;20276;-73
2023/10/31 12:16:07;;;;;;;6.50;4.50;;;;;;;;;;5006914;28;20223;-73
2023/10/31 12:18:35;;;;;;;4.97;3.47;;;;;;;;;;5054068;28;20258;-73
2023/10/31 12:29:06;;;;;;;2.93;1.70;;;;;;;;;;5035102;28;20360;-72
2023/10/31 12:31:32;;;;;;;1.60;1.50;;;;;;;;;;5020580;28;20294;-73
2023/10/31 12:33:57;;;;;;;4.07;2.50;;;;;;;;;;5019991;28;20246;-73
2023/10/31 12:36:25;;;;;;;2.47;2.27;;;;;;;;;;5000828;28;20230;-73
2023/10/31 12:38:50;;;;;;;2.33;1.97;;;;;;;;;;5036624;28;20230;-74
2023/10/31 12:41:16;;;;;;;3.07;2.87;;;;;;;;;;4988548;28;21126;-73
2023/10/31 12:43:42;;;;;;;2.63;2.40;;;;;;;;;;5020211;28;20223;-74
2023/10/31 12:46:29;;;;;;;2.40;2.30;;;;;;;;;;5022932;28;20230;-73
2023/10/31 12:48:58;;;;;;;2.47;2.27;;;;;;;;;;5038027;28;20278;-74
2023/10/31 12:51:26;;;;;;;3.93;2.70;;;;;;;;;;5022657;28;20231;-73
2023/10/31 12:53:52;;;;;;;3.20;3.00;;;;;;;;;;5005819;28;20234;-73
2023/10/31 12:56:42;;;;;;;2.27;2.17;;;;;;;;;;5037019;28;20626;-73
2023/10/31 12:59:09;;;;;;;4.00;3.60;;;;;;;;;;5035102;28;20234;-73
2023/10/31 13:01:44;;;;;;;3.13;2.83;;;;;;;;;;5019819;28;20227;-74
2023/10/31 13:04:09;;;;;;;3.17;2.87;;;;;;;;;;5021369;28;20215;-73
2023/10/31 13:06:35;;;;;;;2.97;2.70;;;;;;;;;;5035941;28;20257;-73
2023/10/31 13:09:01;;;;;;;5.40;2.80;;;;;;;;;;5017985;28;20620;-72
2023/10/31 13:11:33;;;;;;;2.63;2.10;;;;;;;;;;5015441;28;20258;-73
2023/10/31 13:13:59;;;;;;;2.80;2.60;;;;;;;;;;5023373;28;20686;-73
2023/10/31 13:16:27;;;;;;;3.13;2.93;;;;;;;;;;5010268;28;20231;-73
2023/10/31 13:18:54;;;;;;;3.13;2.00;;;;;;;;;;4997517;28;20219;-72
2023/10/31 13:21:20;;;;;;;3.63;3.33;;;;;;;;;;5027894;28;20332;-74
2023/10/31 13:23:47;;;;;;;3.53;3.20;;;;;;;;;;5028321;28;20226;-74
2023/10/31 13:26:13;;;;;;;4.57;3.80;;;;;;;;;;4992155;28;20273;-71
2023/10/31 13:28:43;;;;;;;11.93;10.77;;;;;;;;;;5026953;28;20234;-72
2023/10/31 13:31:12;;;;;;;4.43;4.13;;;;;;;;;;5024952;28;20326;-72
2023/10/31 13:41:17;;;;;;;2.70;2.50;;;;;;;;;;5029032;28;20270;-71
2023/10/31 13:43:48;;;;;;;3.30;2.53;;;;;;;;;;5019224;28;20302;-72
2023/10/31 13:46:13;;;;;;;5.07;4.33;;;;;;;;;;5020437;28;20254;-71
2023/10/31 13:48:41;;;;;;;6.27;5.17;;;;;;;;;;5020887;28;20730;-72
2023/10/31 13:51:07;;;;;;;3.97;3.67;;;;;;;;;;5018715;28;20315;-73
2023/10/31 13:53:32;;;;;;;4.20;3.80;;;;;;;;;;5017012;28;20226;-72
2023/10/31 13:56:02;;;;;;;29.20;26.10;;;;;;;;;;5034173;28;20239;-73
2023/10/31 13:58:30;;;;;;;4.40;3.80;;;;;;;;;;5003597;28;20779;-73
2023/10/31 14:00:58;;;;;;;23.00;20.20;;;;;;;;;;5023964;23;20244;-84
2023/10/31 14:03:26;;;;;;;14.70;13.40;;;;;;;;;;5008812;28;20216;-84
2023/10/31 14:05:51;;;;;;;15.60;13.67;;;;;;;;;;4964950;28;20633;-87
2023/10/31 14:08:19;;;;;;;63.87;57.17;;;;;;;;;;4973423;28;20226;-83
2023/10/31 14:10:45;;;;;;;20.80;14.77;;;;;;;;;;4981462;28;20226;-86
2023/10/31 14:13:12;;;;;;;3.67;3.33;;;;;;;;;;4972715;28;21035;-85
2023/10/31 14:15:37;;;;;;;4.23;3.77;;;;;;;;;;4955402;28;20239;-84
2023/10/31 14:18:03;;;;;;;14.90;11.47;;;;;;;;;;4972349;28;20233;-81
2023/10/31 14:20:29;;;;;;;1.23;1.07;;;;;;;;;;4974697;28;20411;-85
2023/10/31 14:22:55;;;;;;;1.43;0.70;;;;;;;;;;4975390;28;20235;-87
2023/10/31 14:25:22;;;;;;;3.77;3.17;;;;;;;;;;4974996;28;20221;-87
2023/10/31 14:27:48;;;;;;;0.70;0.70;;;;;;;;;;4972583;28;20293;-86
2023/10/31 14:30:16;;;;;;;0.87;0.70;;;;;;;;;;4962176;28;20225;-84
2023/10/31 14:32:44;;;;;;;0.70;0.67;;;;;;;;;;4972662;28;20726;-84
2023/10/31 14:35:09;;;;;;;0.63;0.63;;;;;;;;;;4977491;28;20241;-88
2023/10/31 14:37:35;;;;;;;0.73;0.50;;;;;;;;;;4955514;28;20229;-85
2023/10/31 14:40:03;;;;;;;0.80;0.77;;;;;;;;;;4950714;28;20644;-86
2023/10/31 14:42:31;;;;;;;175.33;147.10;;;;;;;;;;4985262;28;20229;-85
2023/10/31 14:45:00;;;;;;;4.70;4.23;;;;;;;;;;4962303;28;20312;-83
2023/10/31 14:47:28;;;;;;;1.30;0.50;;;;;;;;;;4967909;28;20226;-83
2023/10/31 14:49:53;;;;;;;0.63;0.40;;;;;;;;;;4986342;28;20232;-84
2023/10/31 14:52:21;;;;;;;0.47;0.47;;;;;;;;;;4970127;28;20745;-86
2023/10/31 14:54:48;;;;;;;0.77;0.50;;;;;;;;;;4971179;28;20233;-83
2023/10/31 14:57:14;;;;;;;1.70;0.40;;;;;;;;;;4976317;28;20275;-85
2023/10/31 14:59:40;;;;;;;0.40;0.30;;;;;;;;;;4993064;28;20635;-86
2023/10/31 15:02:08;;;;;;;0.40;0.40;;;;;;;;;;4980099;28;20229;-87
2023/10/31 15:04:35;;;;;;;0.80;0.50;;;;;;;;;;4979339;28;20240;-85
2023/10/31 15:07:01;;;;;;;0.97;0.60;;;;;;;;;;4975617;28;20222;-85
2023/10/31 15:09:27;;;;;;;1.10;0.60;;;;;;;;;;4976341;28;20217;-87
2023/10/31 15:11:54;;;;;;;0.67;0.67;;;;;;;;;;4974395;28;20217;-86
2023/10/31 15:14:22;;;;;;;0.97;0.53;;;;;;;;;;4989846;28;20607;-87
2023/10/31 15:16:48;;;;;;;0.63;0.40;;;;;;;;;;4976439;28;20268;-87
2023/10/31 15:19:13;;;;;;;2.10;0.50;;;;;;;;;;4954858;28;20244;-87
2023/10/31 15:21:39;;;;;;;0.83;0.60;;;;;;;;;;4976070;28;20268;-83
2023/10/31 15:24:07;;;;;;;0.60;0.60;;;;;;;;;;4959262;28;20221;-86
2023/10/31 15:26:36;;;;;;;3.03;0.80;;;;;;;;;;4975384;28;20214;-86
2023/10/31 15:29:02;;;;;;;0.60;0.60;;;;;;;;;;4973424;28;20693;-86
2023/10/31 15:31:33;;;;;;;1.37;1.27;;;;;;;;;;4959320;28;20252;-86
2023/10/31 15:34:00;;;;;;;1.70;0.90;;;;;;;;;;4957955;28;20695;-84
2023/10/31 15:47:46;;;;;;;1.13;0.80;;;;;;;;;;4989413;28;20351;-85
2023/10/31 15:50:12;;;;;;;0.80;0.50;;;;;;;;;;4974746;28;20280;-83
2023/10/31 15:52:38;;;;;;;0.97;0.60;;;;;;;;;;4993474;28;20217;-80
2023/10/31 15:55:04;;;;;;;1.30;0.53;;;;;;;;;;5003256;28;20283;-81
2023/10/31 15:57:30;;;;;;;1.60;0.80;;;;;;;;;;4972937;28;20229;-81
2023/10/31 15:59:55;;;;;;;0.97;0.90;;;;;;;;;;4987037;28;20231;-81
2023/10/31 16:02:23;;;;;;;1.00;0.40;;;;;;;;;;4985203;28;20230;-81
2023/10/31 16:04:48;;;;;;;2.20;0.80;;;;;;;;;;4986963;28;20221;-81
2023/10/31 16:07:14;;;;;;;1.23;0.60;;;;;;;;;;4985945;28;21101;-81
2023/10/31 16:09:44;;;;;;;0.60;0.60;;;;;;;;;;5002497;28;20222;-82
2023/10/31 16:12:10;;;;;;;0.93;0.70;;;;;;;;;;4978177;28;20244;-83
2023/10/31 16:14:36;;;;;;;1.53;1.00;;;;;;;;;;4990766;28;20691;-83
2023/10/31 16:17:01;;;;;;;0.63;0.50;;;;;;;;;;4973718;28;20234;-83
2023/10/31 16:19:27;;;;;;;4.10;0.60;;;;;;;;;;4990243;28;20221;-84
2023/10/31 16:21:52;;;;;;;1.23;0.80;;;;;;;;;;4990579;28;20995;-84
2023/10/31 16:24:18;;;;;;;1.50;0.90;;;;;;;;;;4974313;28;20260;-85
2023/10/31 16:26:46;;;;;;;5.00;1.40;;;;;;;;;;4975175;28;20226;-84
2023/10/31 16:29:15;;;;;;;2.70;1.80;;;;;;;;;;4971532;28;20221;-84
2023/10/31 16:31:41;;;;;;;2.77;1.87;;;;;;;;;;4956585;28;20225;-84
2023/10/31 16:34:10;;;;;;;5.53;2.50;;;;;;;;;;4971735;28;20308;-84
2023/10/31 16:36:35;;;;;;;5.20;3.10;;;;;;;;;;4951079;28;20216;-84
2023/10/31 16:39:03;;;;;;;3.93;3.17;;;;;;;;;;4963270;28;20222;-84
2023/10/31 16:41:29;;;;;;;3.73;3.43;;;;;;;;;;4964943;28;20703;-84
2023/10/31 16:43:54;;;;;;;4.13;3.73;;;;;;;;;;4965191;28;20225;-85
2023/10/31 16:46:23;;;;;;;8.93;6.87;;;;;;;;;;4949782;28;20678;-83
2023/10/31 16:48:51;;;;;;;10.37;8.10;;;;;;;;;;4963485;28;20218;-84
2023/10/31 16:51:19;;;;;;;8.57;6.17;;;;;;;;;;4972351;28;20213;-84
2023/10/31 16:53:47;;;;;;;6.77;5.60;;;;;;;;;;4970908;28;20222;-85
2023/10/31 16:56:13;;;;;;;7.70;5.70;;;;;;;;;;4967889;28;20233;-84
2023/10/31 16:58:45;;;;;;;7.60;4.43;;;;;;;;;;4949350;28;20245;-84
2023/10/31 17:01:14;;;;;;;5.97;5.07;;;;;;;;;;4961837;28;20226;-82
2023/10/31 17:03:39;;;;;;;6.17;5.57;;;;;;;;;;4962431;28;20223;-84
2023/10/31 17:06:08;;;;;;;5.97;5.33;;;;;;;;;;4953830;28;20229;-82
2023/10/31 17:08:35;;;;;;;6.87;5.60;;;;;;;;;;4982417;28;20229;-83
2023/10/31 17:11:01;;;;;;;4.90;4.50;;;;;;;;;;4969435;28;21721;-82
2023/10/31 17:13:31;;;;;;;4.80;4.33;;;;;;;;;;4986671;28;20229;-83
2023/10/31 17:15:58;;;;;;;3.40;3.07;;;;;;;;;;4987007;28;20730;-82
2023/10/31 17:18:25;;;;;;;3.23;2.80;;;;;;;;;;4975751;28;20226;-84
2023/10/31 17:20:54;;;;;;;2.47;1.93;;;;;;;;;;4980215;28;20220;-83
2023/10/31 17:23:23;;;;;;;3.27;1.90;;;;;;;;;;4972718;28;20731;-82
2023/10/31 17:25:49;;;;;;;3.50;2.13;;;;;;;;;;4973778;28;20969;-83
2023/10/31 17:28:15;;;;;;;2.80;2.30;;;;;;;;;;4970852;28;20236;-83
2023/10/31 17:30:41;;;;;;;2.03;1.07;;;;;;;;;;4941261;28;20213;-83
2023/10/31 17:33:07;;;;;;;1.27;1.00;;;;;;;;;;4973011;28;20824;-83